sensor_id;sensor_type;location;lat;lon;timestamp;pressure;altitude;pressure_sealevel;temperature;humidity
45403;BME280;47427;51.976;5.326;2023-04-22T00:01:15;100800.03;;;7.02;100.00
45403;BME280;47427;51.976;5.326;2023-04-22T00:04:39;100800.69;;;6.97;100.00
45403;BME280;47427;51.976;5.326;2023-04-22T00:08:03;100798.09;;;6.97;100.00
45403;BME280;47427;51.976;5.326;2023-04-22T00:11:24;100796.34;;;6.97;100.00
45403;BME280;47427;51.976;5.326;2023-04-22T00:14:47;100782.16;;;6.90;100.00
45403;BME280;47427;51.976;5.326;2023-04-22T00:18:10;100777.91;;;6.92;100.00
45403;BME280;47427;51.976;5.326;2023-04-22T00:21:34;100777.78;;;6.89;100.00
45403;BME280;47427;51.976;5.326;2023-04-22T00:24:56;100783.88;;;6.90;100.00
45403;BME280;47427;51.976;5.326;2023-04-22T00:28:19;100776.72;;;6.84;100.00
45403;BME280;47427;51.976;5.326;2023-04-22T00:31:42;100779.03;;;6.77;100.00
45403;BME280;47427;51.976;5.326;2023-04-22T00:35:05;100782.41;;;6.74;100.00
45403;BME280;47427;51.976;5.326;2023-04-22T00:38:27;100784.94;;;6.72;100.00
45403;BME280;47427;51.976;5.326;2023-04-22T00:41:50;100783.03;;;6.68;100.00
45403;BME280;47427;51.976;5.326;2023-04-22T00:45:15;100783.94;;;6.69;100.00
45403;BME280;47427;51.976;5.326;2023-04-22T00:48:40;100780.56;;;6.71;100.00
45403;BME280;47427;51.976;5.326;2023-04-22T00:52:03;100783.97;;;6.70;100.00
45403;BME280;47427;51.976;5.326;2023-04-22T00:55:26;100780.25;;;6.64;100.00
45403;BME280;47427;51.976;5.326;2023-04-22T00:58:48;100791.56;;;6.64;100.00
45403;BME280;47427;51.976;5.326;2023-04-22T01:02:11;100790.91;;;6.70;100.00
45403;BME280;47427;51.976;5.326;2023-04-22T01:05:33;100796.78;;;6.64;100.00
45403;BME280;47427;51.976;5.326;2023-04-22T01:08:57;100795.25;;;6.69;100.00
45403;BME280;47427;51.976;5.326;2023-04-22T01:12:20;100799.63;;;6.70;100.00
45403;BME280;47427;51.976;5.326;2023-04-22T01:15:42;100803.25;;;6.74;100.00
45403;BME280;47427;51.976;5.326;2023-04-22T01:19:05;100794.56;;;6.73;100.00
45403;BME280;47427;51.976;5.326;2023-04-22T01:22:35;100798.03;;;6.74;100.00
45403;BME280;47427;51.976;5.326;2023-04-22T01:25:57;100805.09;;;6.77;100.00
45403;BME280;47427;51.976;5.326;2023-04-22T01:29:20;100795.47;;;6.76;100.00
45403;BME280;47427;51.976;5.326;2023-04-22T01:32:43;100800.97;;;6.82;100.00
45403;BME280;47427;51.976;5.326;2023-04-22T01:36:05;100787.84;;;6.80;100.00
45403;BME280;47427;51.976;5.326;2023-04-22T01:39:29;100781.50;;;6.73;100.00
45403;BME280;47427;51.976;5.326;2023-04-22T01:42:50;100781.56;;;6.75;100.00
45403;BME280;47427;51.976;5.326;2023-04-22T01:46:15;100791.09;;;6.75;100.00
45403;BME280;47427;51.976;5.326;2023-04-22T01:49:39;100785.03;;;6.76;100.00
45403;BME280;47427;51.976;5.326;2023-04-22T01:53:00;100786.66;;;6.72;100.00
45403;BME280;47427;51.976;5.326;2023-04-22T01:56:23;100786.56;;;6.70;100.00
45403;BME280;47427;51.976;5.326;2023-04-22T01:59:46;100792.63;;;6.69;100.00
45403;BME280;47427;51.976;5.326;2023-04-22T02:03:08;100793.63;;;6.73;100.00
45403;BME280;47427;51.976;5.326;2023-04-22T02:06:31;100788.63;;;6.78;100.00
45403;BME280;47427;51.976;5.326;2023-04-22T02:09:53;100785.44;;;6.85;100.00
45403;BME280;47427;51.976;5.326;2023-04-22T02:13:16;100793.63;;;6.94;100.00
45403;BME280;47427;51.976;5.326;2023-04-22T02:16:40;100795.50;;;6.98;100.00
45403;BME280;47427;51.976;5.326;2023-04-22T02:20:03;100785.84;;;6.95;100.00
45403;BME280;47427;51.976;5.326;2023-04-22T02:23:45;100790.41;;;7.01;100.00
45403;BME280;47427;51.976;5.326;2023-04-22T02:27:06;100788.56;;;6.99;100.00
45403;BME280;47427;51.976;5.326;2023-04-22T02:30:30;100789.50;;;6.99;100.00
45403;BME280;47427;51.976;5.326;2023-04-22T02:33:53;100773.84;;;6.99;100.00
45403;BME280;47427;51.976;5.326;2023-04-22T02:37:14;100781.59;;;6.98;100.00
45403;BME280;47427;51.976;5.326;2023-04-22T02:40:37;100773.94;;;7.02;100.00
45403;BME280;47427;51.976;5.326;2023-04-22T02:44:01;100771.44;;;7.05;100.00
45403;BME280;47427;51.976;5.326;2023-04-22T02:47:23;100767.13;;;7.06;100.00
45403;BME280;47427;51.976;5.326;2023-04-22T02:50:46;100766.34;;;7.08;100.00
45403;BME280;47427;51.976;5.326;2023-04-22T02:54:07;100763.94;;;7.13;100.00
45403;BME280;47427;51.976;5.326;2023-04-22T02:57:30;100755.44;;;7.19;100.00
45403;BME280;47427;51.976;5.326;2023-04-22T03:00:53;100748.53;;;7.19;100.00
45403;BME280;47427;51.976;5.326;2023-04-22T03:04:14;100751.13;;;7.19;100.00
45403;BME280;47427;51.976;5.326;2023-04-22T03:07:37;100735.28;;;7.14;100.00
45403;BME280;47427;51.976;5.326;2023-04-22T03:11:00;100747.97;;;7.28;100.00
45403;BME280;47427;51.976;5.326;2023-04-22T03:14:21;100745.47;;;7.31;100.00
45403;BME280;47427;51.976;5.326;2023-04-22T03:17:44;100749.88;;;7.32;100.00
45403;BME280;47427;51.976;5.326;2023-04-22T03:21:08;100741.19;;;7.33;100.00
45403;BME280;47427;51.976;5.326;2023-04-22T03:24:31;100744.59;;;7.30;100.00
45403;BME280;47427;51.976;5.326;2023-04-22T03:27:57;100742.69;;;7.26;100.00
45403;BME280;47427;51.976;5.326;2023-04-22T03:31:19;100743.31;;;7.19;100.00
45403;BME280;47427;51.976;5.326;2023-04-22T03:34:43;100744.06;;;7.16;100.00
45403;BME280;47427;51.976;5.326;2023-04-22T03:38:06;100738.00;;;7.18;100.00
45403;BME280;47427;51.976;5.326;2023-04-22T03:41:31;100726.69;;;7.17;100.00
45403;BME280;47427;51.976;5.326;2023-04-22T03:44:52;100712.78;;;7.16;100.00
45403;BME280;47427;51.976;5.326;2023-04-22T03:48:20;100724.13;;;7.19;100.00
45403;BME280;47427;51.976;5.326;2023-04-22T03:51:45;100714.72;;;7.22;100.00
45403;BME280;47427;51.976;5.326;2023-04-22T03:55:11;100716.47;;;7.23;100.00
45403;BME280;47427;51.976;5.326;2023-04-22T03:58:34;100718.19;;;7.23;100.00
45403;BME280;47427;51.976;5.326;2023-04-22T04:02:00;100711.25;;;7.23;100.00
45403;BME280;47427;51.976;5.326;2023-04-22T04:06:01;100705.25;;;7.26;100.00
45403;BME280;47427;51.976;5.326;2023-04-22T04:09:24;100701.06;;;7.29;100.00
45403;BME280;47427;51.976;5.326;2023-04-22T04:12:48;100693.94;;;7.25;100.00
45403;BME280;47427;51.976;5.326;2023-04-22T04:16:10;100697.69;;;7.32;100.00
45403;BME280;47427;51.976;5.326;2023-04-22T04:19:36;100690.66;;;7.31;100.00
45403;BME280;47427;51.976;5.326;2023-04-22T04:22:59;100689.09;;;7.36;100.00
45403;BME280;47427;51.976;5.326;2023-04-22T04:26:21;100692.59;;;7.36;100.00
45403;BME280;47427;51.976;5.326;2023-04-22T04:29:50;100683.06;;;7.37;100.00
45403;BME280;47427;51.976;5.326;2023-04-22T04:33:30;100692.59;;;7.36;100.00
45403;BME280;47427;51.976;5.326;2023-04-22T04:36:54;100688.13;;;7.32;100.00
45403;BME280;47427;51.976;5.326;2023-04-22T04:40:23;100683.72;;;7.31;100.00
45403;BME280;47427;51.976;5.326;2023-04-22T04:44:01;100680.41;;;7.35;100.00
45403;BME280;47427;51.976;5.326;2023-04-22T04:47:28;100673.53;;;7.37;100.00
45403;BME280;47427;51.976;5.326;2023-04-22T04:50:57;100661.44;;;7.41;100.00
45403;BME280;47427;51.976;5.326;2023-04-22T04:54:21;100664.31;;;7.47;100.00
45403;BME280;47427;51.976;5.326;2023-04-22T04:57:46;100671.38;;;7.51;100.00
45403;BME280;47427;51.976;5.326;2023-04-22T05:01:09;100668.16;;;7.58;100.00
45403;BME280;47427;51.976;5.326;2023-04-22T05:04:31;100670.09;;;7.64;100.00
45403;BME280;47427;51.976;5.326;2023-04-22T05:07:54;100677.16;;;7.67;100.00
45403;BME280;47427;51.976;5.326;2023-04-22T05:11:17;100674.78;;;7.73;100.00
45403;BME280;47427;51.976;5.326;2023-04-22T05:14:43;100681.84;;;7.77;100.00
45403;BME280;47427;51.976;5.326;2023-04-22T05:18:08;100682.19;;;7.86;100.00
45403;BME280;47427;51.976;5.326;2023-04-22T05:21:30;100686.69;;;7.90;100.00
45403;BME280;47427;51.976;5.326;2023-04-22T05:24:53;100694.00;;;8.00;100.00
45403;BME280;47427;51.976;5.326;2023-04-22T05:28:34;100689.06;;;8.10;100.00
45403;BME280;47427;51.976;5.326;2023-04-22T05:31:56;100694.78;;;8.23;100.00
45403;BME280;47427;51.976;5.326;2023-04-22T05:35:19;100690.69;;;8.32;100.00
45403;BME280;47427;51.976;5.326;2023-04-22T05:38:41;100695.34;;;8.40;100.00
45403;BME280;47427;51.976;5.326;2023-04-22T05:42:03;100693.81;;;8.47;100.00
45403;BME280;47427;51.976;5.326;2023-04-22T05:45:27;100691.38;;;8.53;100.00
45403;BME280;47427;51.976;5.326;2023-04-22T05:48:49;100684.47;;;8.55;100.00
45403;BME280;47427;51.976;5.326;2023-04-22T05:52:38;100688.38;;;8.68;100.00
45403;BME280;47427;51.976;5.326;2023-04-22T05:56:07;100688.97;;;8.86;100.00
45403;BME280;47427;51.976;5.326;2023-04-22T05:59:28;100679.97;;;9.07;100.00
45403;BME280;47427;51.976;5.326;2023-04-22T06:02:51;100691.31;;;9.07;100.00
45403;BME280;47427;51.976;5.326;2023-04-22T06:06:14;100677.81;;;9.24;100.00
45403;BME280;47427;51.976;5.326;2023-04-22T06:09:36;100684.28;;;9.37;100.00
45403;BME280;47427;51.976;5.326;2023-04-22T06:12:58;100677.91;;;9.57;100.00
45403;BME280;47427;51.976;5.326;2023-04-22T06:16:21;100675.13;;;9.84;100.00
45403;BME280;47427;51.976;5.326;2023-04-22T06:19:45;100671.47;;;10.11;100.00
45403;BME280;47427;51.976;5.326;2023-04-22T06:23:07;100671.84;;;10.61;100.00
45403;BME280;47427;51.976;5.326;2023-04-22T06:26:29;100667.09;;;10.84;100.00
45403;BME280;47427;51.976;5.326;2023-04-22T06:29:52;100652.81;;;11.12;100.00
45403;BME280;47427;51.976;5.326;2023-04-22T06:33:15;100645.16;;;11.68;100.00
45403;BME280;47427;51.976;5.326;2023-04-22T06:36:36;100646.81;;;12.10;100.00
45403;BME280;47427;51.976;5.326;2023-04-22T06:40:01;100642.13;;;12.46;100.00
45403;BME280;47427;51.976;5.326;2023-04-22T06:43:40;100636.81;;;12.44;100.00
45403;BME280;47427;51.976;5.326;2023-04-22T06:47:20;100646.16;;;12.86;100.00
45403;BME280;47427;51.976;5.326;2023-04-22T06:50:54;100641.22;;;13.09;100.00
45403;BME280;47427;51.976;5.326;2023-04-22T06:54:15;100646.00;;;13.38;100.00
45403;BME280;47427;51.976;5.326;2023-04-22T06:57:38;100636.88;;;13.91;100.00
45403;BME280;47427;51.976;5.326;2023-04-22T07:01:01;100628.16;;;15.63;100.00
45403;BME280;47427;51.976;5.326;2023-04-22T07:04:24;100626.31;;;17.08;100.00
45403;BME280;47427;51.976;5.326;2023-04-22T07:07:48;100635.81;;;17.52;100.00
45403;BME280;47427;51.976;5.326;2023-04-22T07:11:15;100632.66;;;16.01;100.00
45403;BME280;47427;51.976;5.326;2023-04-22T07:14:48;100634.13;;;15.04;100.00
45403;BME280;47427;51.976;5.326;2023-04-22T07:18:09;100638.00;;;14.22;100.00
45403;BME280;47427;51.976;5.326;2023-04-22T07:21:32;100627.66;;;13.49;100.00
45403;BME280;47427;51.976;5.326;2023-04-22T07:24:54;100624.66;;;16.84;100.00
45403;BME280;47427;51.976;5.326;2023-04-22T07:28:16;100619.72;;;19.53;92.84
45403;BME280;47427;51.976;5.326;2023-04-22T07:31:39;100613.41;;;19.58;88.79
45403;BME280;47427;51.976;5.326;2023-04-22T07:35:00;100622.84;;;19.16;83.49
45403;BME280;47427;51.976;5.326;2023-04-22T07:38:24;100630.06;;;19.76;82.82
45403;BME280;47427;51.976;5.326;2023-04-22T07:41:46;100631.81;;;20.31;75.05
45403;BME280;47427;51.976;5.326;2023-04-22T07:45:29;100642.84;;;21.07;60.89
45403;BME280;47427;51.976;5.326;2023-04-22T07:49:12;100648.72;;;21.25;60.84
45403;BME280;47427;51.976;5.326;2023-04-22T07:52:34;100635.00;;;22.21;58.98
45403;BME280;47427;51.976;5.326;2023-04-22T07:55:57;100641.50;;;22.78;56.30
45403;BME280;47427;51.976;5.326;2023-04-22T07:59:19;100634.09;;;23.20;52.60
45403;BME280;47427;51.976;5.326;2023-04-22T08:02:41;100629.16;;;23.36;52.51
45403;BME280;47427;51.976;5.326;2023-04-22T08:06:05;100622.03;;;25.21;51.54
45403;BME280;47427;51.976;5.326;2023-04-22T08:09:26;100608.47;;;24.51;49.34
45403;BME280;47427;51.976;5.326;2023-04-22T08:12:49;100604.41;;;25.38;45.74
45403;BME280;47427;51.976;5.326;2023-04-22T08:16:11;100600.56;;;26.74;44.82
45403;BME280;47427;51.976;5.326;2023-04-22T08:19:33;100590.41;;;26.99;41.79
45403;BME280;47427;51.976;5.326;2023-04-22T08:22:56;100588.25;;;27.45;40.25
45403;BME280;47427;51.976;5.326;2023-04-22T08:26:20;100573.50;;;28.25;40.50
45403;BME280;47427;51.976;5.326;2023-04-22T08:29:43;100581.09;;;28.00;38.93
45403;BME280;47427;51.976;5.326;2023-04-22T08:33:06;100573.84;;;29.21;37.84
45403;BME280;47427;51.976;5.326;2023-04-22T08:36:30;100573.41;;;29.44;38.90
45403;BME280;47427;51.976;5.326;2023-04-22T08:39:53;100578.28;;;27.29;39.82
45403;BME280;47427;51.976;5.326;2023-04-22T08:43:15;100578.75;;;25.52;42.41
45403;BME280;47427;51.976;5.326;2023-04-22T08:47:00;100565.47;;;27.34;42.47
45403;BME280;47427;51.976;5.326;2023-04-22T08:50:21;100573.81;;;30.16;35.68
45403;BME280;47427;51.976;5.326;2023-04-22T08:53:44;100568.97;;;30.65;34.39
45403;BME280;47427;51.976;5.326;2023-04-22T08:57:08;100555.91;;;29.51;34.54
45403;BME280;47427;51.976;5.326;2023-04-22T09:00:32;100546.03;;;28.69;36.02
45403;BME280;47427;51.976;5.326;2023-04-22T09:03:58;100539.44;;;30.32;35.75
45403;BME280;47427;51.976;5.326;2023-04-22T09:07:27;100531.03;;;30.07;34.02
45403;BME280;47427;51.976;5.326;2023-04-22T09:10:50;100535.75;;;30.92;33.40
45403;BME280;47427;51.976;5.326;2023-04-22T09:14:12;100530.56;;;30.73;32.39
45403;BME280;47427;51.976;5.326;2023-04-22T09:17:36;100517.28;;;31.94;32.20
45403;BME280;47427;51.976;5.326;2023-04-22T09:20:59;100514.34;;;33.50;28.80
45403;BME280;47427;51.976;5.326;2023-04-22T09:24:20;100506.44;;;31.80;31.39
45403;BME280;47427;51.976;5.326;2023-04-22T09:27:42;100506.88;;;31.74;30.97
45403;BME280;47427;51.976;5.326;2023-04-22T09:31:05;100505.50;;;32.85;30.47
45403;BME280;47427;51.976;5.326;2023-04-22T09:34:27;100490.81;;;33.97;29.27
45403;BME280;47427;51.976;5.326;2023-04-22T09:37:52;100482.66;;;34.88;27.94
45403;BME280;47427;51.976;5.326;2023-04-22T09:41:14;100487.34;;;35.96;26.86
45403;BME280;47427;51.976;5.326;2023-04-22T09:44:38;100475.16;;;36.42;26.15
45403;BME280;47427;51.976;5.326;2023-04-22T09:51:28;100471.50;;;36.32;26.86
45403;BME280;47427;51.976;5.326;2023-04-22T09:54:51;100479.88;;;36.40;25.05
45403;BME280;47427;51.976;5.326;2023-04-22T09:58:16;100470.72;;;36.51;25.33
45403;BME280;47427;51.976;5.326;2023-04-22T10:01:40;100471.84;;;35.96;24.92
45403;BME280;47427;51.976;5.326;2023-04-22T10:05:02;100472.88;;;35.63;26.11
45403;BME280;47427;51.976;5.326;2023-04-22T10:08:25;100482.19;;;37.66;22.79
45403;BME280;47427;51.976;5.326;2023-04-22T10:12:07;100479.53;;;35.04;24.41
45403;BME280;47427;51.976;5.326;2023-04-22T10:15:50;100482.66;;;31.58;30.18
45403;BME280;47427;51.976;5.326;2023-04-22T10:19:18;100481.13;;;28.38;33.52
45403;BME280;47427;51.976;5.326;2023-04-22T10:22:42;100479.25;;;27.15;38.01
45403;BME280;47427;51.976;5.326;2023-04-22T10:26:05;100488.06;;;26.41;36.92
45403;BME280;47427;51.976;5.326;2023-04-22T10:29:38;100486.13;;;24.72;41.40
45403;BME280;47427;51.976;5.326;2023-04-22T10:37:08;100496.91;;;27.22;38.41
45403;BME280;47427;51.976;5.326;2023-04-22T10:40:32;100495.06;;;32.66;29.32
45403;BME280;47427;51.976;5.326;2023-04-22T10:47:36;100485.53;;;28.56;33.12
45403;BME280;47427;51.976;5.326;2023-04-22T10:50:58;100498.78;;;25.37;39.42
45403;BME280;47427;51.976;5.326;2023-04-22T10:57:50;100501.00;;;21.64;46.90
45403;BME280;47427;51.976;5.326;2023-04-22T11:01:15;100518.50;;;21.02;48.85
45403;BME280;47427;51.976;5.326;2023-04-22T11:04:38;100520.25;;;21.01;51.03
45403;BME280;47427;51.976;5.326;2023-04-22T11:08:15;100494.56;;;21.73;49.92
45403;BME280;47427;51.976;5.326;2023-04-22T11:11:38;100483.16;;;21.67;51.19
45403;BME280;47427;51.976;5.326;2023-04-22T11:15:10;100492.28;;;21.19;51.00
45403;BME280;47427;51.976;5.326;2023-04-22T11:18:33;100497.75;;;20.74;52.37
45403;BME280;47427;51.976;5.326;2023-04-22T11:21:56;100496.47;;;20.03;55.06
45403;BME280;47427;51.976;5.326;2023-04-22T11:25:21;100494.91;;;19.34;56.17
45403;BME280;47427;51.976;5.326;2023-04-22T11:28:46;100491.25;;;18.82;57.53
45403;BME280;47427;51.976;5.326;2023-04-22T11:32:09;100484.38;;;18.65;58.81
45403;BME280;47427;51.976;5.326;2023-04-22T11:35:33;100494.44;;;18.35;62.15
45403;BME280;47427;51.976;5.326;2023-04-22T11:38:55;100507.19;;;18.04;64.38
45403;BME280;47427;51.976;5.326;2023-04-22T11:42:21;100529.06;;;17.19;69.64
45403;BME280;47427;51.976;5.326;2023-04-22T11:45:45;100517.72;;;16.91;76.69
45403;BME280;47427;51.976;5.326;2023-04-22T11:49:14;100532.13;;;15.90;98.00
45403;BME280;47427;51.976;5.326;2023-04-22T11:53:17;100524.16;;;15.92;100.00
45403;BME280;47427;51.976;5.326;2023-04-22T11:56:38;100525.91;;;16.08;100.00
45403;BME280;47427;51.976;5.326;2023-04-22T12:00:01;100522.38;;;16.09;100.00
45403;BME280;47427;51.976;5.326;2023-04-22T12:03:29;100520.63;;;15.90;99.21
45403;BME280;47427;51.976;5.326;2023-04-22T12:06:52;100517.06;;;16.15;100.00
45403;BME280;47427;51.976;5.326;2023-04-22T12:10:15;100523.28;;;15.96;98.18
45403;BME280;47427;51.976;5.326;2023-04-22T12:17:03;100522.38;;;15.52;100.00
45403;BME280;47427;51.976;5.326;2023-04-22T12:20:32;100525.03;;;15.63;100.00
45403;BME280;47427;51.976;5.326;2023-04-22T12:24:01;100533.81;;;15.37;100.00
45403;BME280;47427;51.976;5.326;2023-04-22T12:27:27;100539.13;;;15.42;100.00
45403;BME280;47427;51.976;5.326;2023-04-22T12:30:48;100539.09;;;15.36;100.00
45403;BME280;47427;51.976;5.326;2023-04-22T12:34:11;100535.53;;;15.20;100.00
45403;BME280;47427;51.976;5.326;2023-04-22T12:37:33;100539.88;;;14.98;100.00
45403;BME280;47427;51.976;5.326;2023-04-22T12:40:57;100543.44;;;15.05;100.00
45403;BME280;47427;51.976;5.326;2023-04-22T12:44:20;100534.63;;;15.13;100.00
45403;BME280;47427;51.976;5.326;2023-04-22T12:47:41;100527.66;;;15.29;100.00
45403;BME280;47427;51.976;5.326;2023-04-22T12:51:05;100517.09;;;15.68;100.00
45403;BME280;47427;51.976;5.326;2023-04-22T12:54:28;100504.66;;;16.33;100.00
45403;BME280;47427;51.976;5.326;2023-04-22T12:57:51;100503.72;;;16.51;100.00
45403;BME280;47427;51.976;5.326;2023-04-22T13:01:13;100513.50;;;16.41;100.00
45403;BME280;47427;51.976;5.326;2023-04-22T13:04:35;100512.59;;;16.43;100.00
45403;BME280;47427;51.976;5.326;2023-04-22T13:07:58;100518.75;;;16.42;100.00
45403;BME280;47427;51.976;5.326;2023-04-22T13:11:21;100533.78;;;16.46;100.00
45403;BME280;47427;51.976;5.326;2023-04-22T13:14:42;100540.88;;;16.24;100.00
45403;BME280;47427;51.976;5.326;2023-04-22T13:18:04;100530.31;;;16.01;100.00
45403;BME280;47427;51.976;5.326;2023-04-22T13:21:27;100550.63;;;15.89;100.00
45403;BME280;47427;51.976;5.326;2023-04-22T13:24:49;100560.25;;;15.48;100.00
45403;BME280;47427;51.976;5.326;2023-04-22T13:28:12;100555.88;;;15.47;100.00
45403;BME280;47427;51.976;5.326;2023-04-22T13:31:33;100554.97;;;15.34;100.00
45403;BME280;47427;51.976;5.326;2023-04-22T13:34:56;100559.38;;;15.40;100.00
45403;BME280;47427;51.976;5.326;2023-04-22T13:38:19;100553.19;;;15.38;100.00
45403;BME280;47427;51.976;5.326;2023-04-22T13:41:40;100553.22;;;15.64;100.00
45403;BME280;47427;51.976;5.326;2023-04-22T13:45:04;100547.09;;;15.80;100.00
45403;BME280;47427;51.976;5.326;2023-04-22T13:48:27;100536.53;;;15.93;100.00
45403;BME280;47427;51.976;5.326;2023-04-22T13:51:50;100537.38;;;16.01;100.00
45403;BME280;47427;51.976;5.326;2023-04-22T13:55:12;100533.81;;;16.17;100.00
45403;BME280;47427;51.976;5.326;2023-04-22T13:58:34;100529.41;;;16.18;100.00
45403;BME280;47427;51.976;5.326;2023-04-22T14:01:57;100530.28;;;16.29;100.00
45403;BME280;47427;51.976;5.326;2023-04-22T14:05:19;100529.41;;;16.33;100.00
45403;BME280;47427;51.976;5.326;2023-04-22T14:08:41;100535.56;;;16.37;100.00
45403;BME280;47427;51.976;5.326;2023-04-22T14:12:05;100534.66;;;16.35;100.00
45403;BME280;47427;51.976;5.326;2023-04-22T14:15:29;100536.44;;;16.30;100.00
45403;BME280;47427;51.976;5.326;2023-04-22T14:18:50;100536.47;;;16.27;100.00
45403;BME280;47427;51.976;5.326;2023-04-22T14:22:13;100534.75;;;16.01;100.00
45403;BME280;47427;51.976;5.326;2023-04-22T14:25:36;100536.47;;;16.27;100.00
45403;BME280;47427;51.976;5.326;2023-04-22T14:28:57;100536.38;;;16.57;100.00
45403;BME280;47427;51.976;5.326;2023-04-22T14:32:20;100530.22;;;16.52;99.70
45403;BME280;47427;51.976;5.326;2023-04-22T14:35:42;100531.97;;;16.45;99.63
45403;BME280;47427;51.976;5.326;2023-04-22T14:39:05;100534.72;;;16.13;99.95
45403;BME280;47427;51.976;5.326;2023-04-22T14:42:27;100533.84;;;16.02;100.00
45403;BME280;47427;51.976;5.326;2023-04-22T14:45:49;100534.72;;;16.09;100.00
45403;BME280;47427;51.976;5.326;2023-04-22T14:49:12;100540.03;;;15.84;100.00
45403;BME280;47427;51.976;5.326;2023-04-22T14:52:34;100532.06;;;15.69;100.00
45403;BME280;47427;51.976;5.326;2023-04-22T14:55:56;100542.66;;;15.66;100.00
45403;BME280;47427;51.976;5.326;2023-04-22T14:59:19;100544.41;;;15.51;100.00
45403;BME280;47427;51.976;5.326;2023-04-22T15:02:40;100540.81;;;15.15;100.00
45403;BME280;47427;51.976;5.326;2023-04-22T15:06:03;100544.28;;;14.91;100.00
45403;BME280;47427;51.976;5.326;2023-04-22T15:09:26;100546.84;;;14.74;100.00
45403;BME280;47427;51.976;5.326;2023-04-22T15:12:48;100541.56;;;14.74;100.00
45403;BME280;47427;51.976;5.326;2023-04-22T15:16:11;100552.97;;;14.67;100.00
45403;BME280;47427;51.976;5.326;2023-04-22T15:19:35;100547.66;;;14.60;100.00
45403;BME280;47427;51.976;5.326;2023-04-22T15:22:57;100551.97;;;14.48;100.00
45403;BME280;47427;51.976;5.326;2023-04-22T15:26:20;100558.19;;;14.54;100.00
45403;BME280;47427;51.976;5.326;2023-04-22T15:29:42;100557.13;;;14.28;100.00
45403;BME280;47427;51.976;5.326;2023-04-22T15:33:07;100558.88;;;14.23;100.00
45403;BME280;47427;51.976;5.326;2023-04-22T15:36:30;100563.13;;;14.03;100.00
45403;BME280;47427;51.976;5.326;2023-04-22T15:39:53;100569.19;;;13.94;100.00
45403;BME280;47427;51.976;5.326;2023-04-22T15:43:16;100575.22;;;13.78;100.00
45403;BME280;47427;51.976;5.326;2023-04-22T15:46:37;100565.53;;;13.75;100.00
45403;BME280;47427;51.976;5.326;2023-04-22T15:50:00;100571.66;;;13.74;100.00
45403;BME280;47427;51.976;5.326;2023-04-22T15:53:30;100569.75;;;13.59;100.00
45403;BME280;47427;51.976;5.326;2023-04-22T15:56:51;100565.41;;;13.60;100.00
45403;BME280;47427;51.976;5.326;2023-04-22T16:00:14;100570.44;;;13.38;100.00
45403;BME280;47427;51.976;5.326;2023-04-22T16:03:55;100576.34;;;13.19;100.00
45403;BME280;47427;51.976;5.326;2023-04-22T16:07:19;100576.22;;;13.08;100.00
45403;BME280;47427;51.976;5.326;2023-04-22T16:10:41;100583.13;;;12.98;100.00
45403;BME280;47427;51.976;5.326;2023-04-22T16:14:03;100583.88;;;12.88;100.00
45403;BME280;47427;51.976;5.326;2023-04-22T16:17:26;100591.72;;;12.84;100.00
45403;BME280;47427;51.976;5.326;2023-04-22T16:20:49;100593.09;;;12.55;100.00
45403;BME280;47427;51.976;5.326;2023-04-22T16:24:11;100598.91;;;12.31;100.00
45403;BME280;47427;51.976;5.326;2023-04-22T16:27:35;100605.63;;;12.12;100.00
45403;BME280;47427;51.976;5.326;2023-04-22T16:30:57;100621.69;;;11.79;100.00
45403;BME280;47427;51.976;5.326;2023-04-22T16:34:20;100620.63;;;11.69;100.00
45403;BME280;47427;51.976;5.326;2023-04-22T16:37:43;100613.66;;;11.71;100.00
45403;BME280;47427;51.976;5.326;2023-04-22T16:41:04;100616.09;;;11.61;100.00
45403;BME280;47427;51.976;5.326;2023-04-22T16:44:45;100612.75;;;11.69;100.00
45403;BME280;47427;51.976;5.326;2023-04-22T16:48:08;100607.31;;;12.09;100.00
45403;BME280;47427;51.976;5.326;2023-04-22T16:51:31;100594.63;;;12.40;100.00
45403;BME280;47427;51.976;5.326;2023-04-22T16:54:53;100595.97;;;12.72;100.00
45403;BME280;47427;51.976;5.326;2023-04-22T16:58:15;100592.03;;;13.07;100.00
45403;BME280;47427;51.976;5.326;2023-04-22T17:01:38;100595.56;;;13.10;100.00
45403;BME280;47427;51.976;5.326;2023-04-22T17:05:02;100595.81;;;13.29;100.00
45403;BME280;47427;51.976;5.326;2023-04-22T17:08:24;100595.94;;;13.39;100.00
45403;BME280;47427;51.976;5.326;2023-04-22T17:11:47;100601.25;;;13.44;100.00
45403;BME280;47427;51.976;5.326;2023-04-22T17:15:09;100595.94;;;13.41;100.00
45403;BME280;47427;51.976;5.326;2023-04-22T17:18:32;100602.06;;;13.37;100.00
45403;BME280;47427;51.976;5.326;2023-04-22T17:21:54;100602.75;;;13.23;100.00
45403;BME280;47427;51.976;5.326;2023-04-22T17:25:16;100600.88;;;13.12;100.00
45403;BME280;47427;51.976;5.326;2023-04-22T17:28:39;100606.78;;;12.92;100.00
45403;BME280;47427;51.976;5.326;2023-04-22T17:32:02;100614.28;;;12.65;100.00
45403;BME280;47427;51.976;5.326;2023-04-22T17:35:23;100614.72;;;12.34;100.00
45403;BME280;47427;51.976;5.326;2023-04-22T17:38:46;100625.81;;;12.15;100.00
45403;BME280;47427;51.976;5.326;2023-04-22T17:42:08;100624.03;;;12.12;100.00
45403;BME280;47427;51.976;5.326;2023-04-22T17:45:30;100630.91;;;12.03;100.00
45403;BME280;47427;51.976;5.326;2023-04-22T17:48:53;100630.81;;;12.00;100.00
45403;BME280;47427;51.976;5.326;2023-04-22T17:52:15;100634.38;;;12.02;100.00
45403;BME280;47427;51.976;5.326;2023-04-22T17:55:37;100630.06;;;12.07;100.00
45403;BME280;47427;51.976;5.326;2023-04-22T17:59:00;100644.28;;;12.17;100.00